createdAt,value
2019-03-10T00:03:15.267Z,2.75
2019-03-10T00:11:53.735Z,2.65
2019-03-10T00:14:29.730Z,2.92
2019-03-10T00:20:39.908Z,2.50
2019-03-10T00:23:59.827Z,3.25
2019-03-10T00:42:51.367Z,2.65
2019-03-10T00:46:17.820Z,2.75
2019-03-10T00:49:32.279Z,3.15
2019-03-10T00:52:25.424Z,2.47
2019-03-10T00:55:01.291Z,3.42
2019-03-10T00:58:16.360Z,3.27
2019-03-10T01:14:22.964Z,2.87
2019-03-10T01:17:06.739Z,3.30
2019-03-10T01:26:25.579Z,3.12
2019-03-10T01:55:18.898Z,3.67
2019-03-10T02:24:10.446Z,3.65
2019-03-10T02:33:45.570Z,3.45
2019-03-10T02:39:13.116Z,3.60
2019-03-10T03:18:35.545Z,3.47
2019-03-10T03:21:41.746Z,3.35
2019-03-10T03:27:12.704Z,3.42
2019-03-10T03:29:52.962Z,3.17
2019-03-10T03:32:57.661Z,3.45
2019-03-10T03:39:38.243Z,3.08
2019-03-10T03:57:56.461Z,3.58
2019-03-10T04:12:59.963Z,3.55
2019-03-10T04:19:09.005Z,3.50
2019-03-10T04:21:53.708Z,3.02
2019-03-10T04:25:25.781Z,3.52
2019-03-10T04:28:03.033Z,2.80
2019-03-10T04:31:32.499Z,3.33
2019-03-10T04:34:31.024Z,3.67
2019-03-10T04:50:16.249Z,3.15
2019-03-10T04:53:24.287Z,3.90
2019-03-10T04:55:49.081Z,2.83
2019-03-10T04:58:45.624Z,3.58
2019-03-10T05:01:19.735Z,3.80
2019-03-10T05:04:10.947Z,3.62
2019-03-10T05:06:49.768Z,3.10
2019-03-10T05:09:32.566Z,3.17
2019-03-10T05:12:29.020Z,3.20
2019-03-10T05:15:59.217Z,2.92
2019-03-10T05:18:33.270Z,3.30
2019-03-10T05:21:38.820Z,3.50
2019-03-10T05:39:55.714Z,3.65
2019-03-10T05:43:22.310Z,3.70
2019-03-10T05:52:31.337Z,3.42
2019-03-10T06:01:51.649Z,4.20
2019-03-10T06:14:12.764Z,3.33
2019-03-10T06:17:28.540Z,3.30
2019-03-10T06:33:03.426Z,3.25
2019-03-10T06:35:41.529Z,2.52
2019-03-10T06:44:38.825Z,2.72
2019-03-10T06:47:19.153Z,3.60
2019-03-10T06:55:41.053Z,2.90
2019-03-10T06:58:17.537Z,2.92
2019-03-10T07:01:07.283Z,2.80
2019-03-10T07:03:44.772Z,3.30
2019-03-10T07:06:21.975Z,3.75
2019-03-10T07:08:53.656Z,3.17
2019-03-10T07:11:58.357Z,3.33
2019-03-10T07:14:41.779Z,3.52
2019-03-10T07:17:36.385Z,3.20
2019-03-10T07:23:06.135Z,3.00
2019-03-10T07:25:43.911Z,3.10
2019-03-10T07:28:46.680Z,2.95
2019-03-10T07:31:50.712Z,3.12
2019-03-10T07:34:45.904Z,2.90
2019-03-10T07:37:27.200Z,2.60
2019-03-10T07:40:17.089Z,2.50
2019-03-10T07:43:23.373Z,2.40
2019-03-10T07:49:34.547Z,2.52
2019-03-10T07:52:47.499Z,2.37
2019-03-10T07:55:48.727Z,2.55
2019-03-10T07:58:37.712Z,2.50
2019-03-10T08:01:33.599Z,2.20
2019-03-10T08:04:50.298Z,2.85
2019-03-10T08:07:59.634Z,2.35
2019-03-10T08:17:40.404Z,2.10
2019-03-10T08:20:49.019Z,2.00
2019-03-10T08:26:52.460Z,1.87
2019-03-10T08:29:39.899Z,1.85
2019-03-10T08:36:43.377Z,2.10
2019-03-10T08:39:31.206Z,1.90
2019-03-10T08:42:28.070Z,1.90
2019-03-10T08:45:23.257Z,1.87
2019-03-10T08:48:17.978Z,1.50
2019-03-10T08:51:09.767Z,1.67
2019-03-10T08:57:02.456Z,1.80
2019-03-10T09:02:51.687Z,1.80
2019-03-10T09:06:04.613Z,1.80
2019-03-10T09:17:54.062Z,1.65
2019-03-10T09:23:58.660Z,1.50
2019-03-10T09:27:18.906Z,1.20
2019-03-10T09:30:46.084Z,1.30
2019-03-10T09:33:30.456Z,1.10
2019-03-10T09:36:20.431Z,1.00
2019-03-10T09:39:13.142Z,1.20
2019-03-10T09:41:56.978Z,1.35
2019-03-10T09:44:49.640Z,1.15
2019-03-10T09:47:42.497Z,0.80
2019-03-10T09:50:41.548Z,0.85
2019-03-10T09:53:46.816Z,0.90
2019-03-10T09:56:36.017Z,1.17
2019-03-10T09:59:20.507Z,1.25
2019-03-10T10:02:13.583Z,1.07
2019-03-10T10:22:59.558Z,1.05
2019-03-10T10:25:58.817Z,1.00
2019-03-10T10:36:17.246Z,1.00
2019-03-10T10:39:19.145Z,0.70
2019-03-10T10:57:56.888Z,1.10
2019-03-10T11:00:50.132Z,0.88
2019-03-10T11:03:51.086Z,1.10
2019-03-10T11:07:20.262Z,0.90
2019-03-10T11:17:20.772Z,1.47
2019-03-10T11:24:05.137Z,2.90
2019-03-10T11:26:46.919Z,2.12
2019-03-10T11:30:53.611Z,2.58
2019-03-10T11:32:40.313Z,2.40
2019-03-10T11:38:37.022Z,1.30
2019-03-10T11:44:34.351Z,4.60
2019-03-10T11:47:29.962Z,5.67
2019-03-10T11:50:17.676Z,1.60
2019-03-10T11:53:19.363Z,1.12
2019-03-10T11:56:01.953Z,1.50
2019-03-10T11:58:51.608Z,1.67
2019-03-10T12:01:44.279Z,1.95
2019-03-10T12:04:35.452Z,2.85
2019-03-10T12:07:30.718Z,9.55
2019-03-10T12:10:01.535Z,14.50
2019-03-10T12:12:33.364Z,16.27
2019-03-10T12:15:04.310Z,16.42
2019-03-10T12:17:35.153Z,16.10
2019-03-10T12:20:07.119Z,14.20
2019-03-10T12:22:38.059Z,9.15
2019-03-10T12:25:09.565Z,3.67
2019-03-10T12:27:40.384Z,2.30
2019-03-10T12:30:11.746Z,2.55
2019-03-10T12:32:42.617Z,2.77
2019-03-10T12:35:13.749Z,2.50
2019-03-10T12:37:44.581Z,1.80
2019-03-10T12:40:15.814Z,2.27
2019-03-10T12:42:46.618Z,1.67
2019-03-10T12:45:17.448Z,1.50
2019-03-10T12:47:48.250Z,1.50
2019-03-10T12:50:19.088Z,1.80
2019-03-10T12:52:49.871Z,2.05
2019-03-10T12:55:20.692Z,1.90
2019-03-10T12:57:51.524Z,1.40
2019-03-10T13:00:22.380Z,1.55
2019-03-10T13:02:53.171Z,2.83
2019-03-10T13:05:23.992Z,2.67
2019-03-10T13:07:54.832Z,1.60
2019-03-10T13:10:25.665Z,1.60
2019-03-10T13:12:56.468Z,1.42
2019-03-10T13:15:27.313Z,1.82
2019-03-10T13:17:58.141Z,1.17
2019-03-10T13:20:29.013Z,1.55
2019-03-10T13:23:00.836Z,1.52
2019-03-10T13:25:31.641Z,1.40
2019-03-10T13:28:02.440Z,1.45
2019-03-10T13:30:33.265Z,1.60
2019-03-10T13:33:04.076Z,1.65
2019-03-10T13:35:34.996Z,1.52
2019-03-10T13:38:06.009Z,1.80
2019-03-10T13:40:36.832Z,1.77
2019-03-10T13:43:07.646Z,2.00
2019-03-10T13:45:38.456Z,1.70
2019-03-10T13:48:09.384Z,1.50
2019-03-10T13:50:40.317Z,1.40
2019-03-10T13:53:11.185Z,1.47
2019-03-10T13:55:42.006Z,1.32
2019-03-10T13:58:12.933Z,1.60
2019-03-10T14:00:43.758Z,1.65
2019-03-10T14:03:14.605Z,1.85
2019-03-10T14:05:45.447Z,1.98
2019-03-10T14:08:16.257Z,2.65
2019-03-10T14:10:47.216Z,2.20
2019-03-10T14:13:18.037Z,1.80
2019-03-10T14:15:48.881Z,1.62
2019-03-10T14:18:19.697Z,2.15
2019-03-10T14:20:50.527Z,1.72
2019-03-10T14:23:21.333Z,1.87
2019-03-10T14:25:52.203Z,2.08
2019-03-10T14:28:23.040Z,1.87
2019-03-10T14:30:53.948Z,1.92
2019-03-10T14:33:24.845Z,2.02
2019-03-10T14:35:55.752Z,2.35
2019-03-10T14:38:26.713Z,2.45
2019-03-10T14:40:57.654Z,2.30
2019-03-10T14:43:29.495Z,2.42
2019-03-10T14:46:00.426Z,2.42
2019-03-10T14:48:31.304Z,3.47
2019-03-10T14:51:02.130Z,3.05
2019-03-10T14:53:33.434Z,2.30
2019-03-10T14:56:04.288Z,2.70
2019-03-10T14:58:35.106Z,2.70
2019-03-10T15:01:06.401Z,2.20
2019-03-10T15:03:37.241Z,2.70
2019-03-10T15:06:08.173Z,2.42
2019-03-10T15:08:38.989Z,2.80
2019-03-10T15:11:09.960Z,2.77
2019-03-10T15:13:41.786Z,2.40
2019-03-10T15:16:12.649Z,2.67
2019-03-10T15:18:43.491Z,2.87
2019-03-10T15:21:14.405Z,2.90
2019-03-10T15:23:45.246Z,3.10
2019-03-10T15:26:16.101Z,4.28
2019-03-10T15:28:47.117Z,3.52
2019-03-10T15:31:17.925Z,3.47
2019-03-10T15:33:48.781Z,3.20
2019-03-10T15:36:20.753Z,4.20
2019-03-10T15:38:51.937Z,3.17
2019-03-10T15:41:22.796Z,3.00
2019-03-10T15:43:53.642Z,2.77
2019-03-10T15:46:24.514Z,2.70
2019-03-10T15:48:55.329Z,3.17
2019-03-10T15:51:26.284Z,3.37
2019-03-10T15:53:57.116Z,3.00
2019-03-10T15:56:27.937Z,3.08
2019-03-10T15:58:58.807Z,3.40
2019-03-10T16:01:29.645Z,3.35
2019-03-10T16:04:15.701Z,3.20
2019-03-10T16:06:47.042Z,3.10
2019-03-10T16:09:18.121Z,3.02
2019-03-10T16:11:48.998Z,3.50
2019-03-10T16:14:19.823Z,3.55
2019-03-10T16:16:50.797Z,3.20
2019-03-10T16:19:21.648Z,3.65
2019-03-10T16:21:52.533Z,3.80
2019-03-10T16:24:23.398Z,4.37
2019-03-10T16:26:54.264Z,4.90
2019-03-10T16:29:25.202Z,4.53
2019-03-10T16:31:56.140Z,3.95
2019-03-10T16:34:26.981Z,3.52
2019-03-10T16:36:57.884Z,2.35
2019-03-10T16:39:28.720Z,2.50
2019-03-10T16:41:59.588Z,1.92
2019-03-10T16:44:30.476Z,2.67
2019-03-10T16:47:01.334Z,2.67
2019-03-10T16:49:32.284Z,3.00
2019-03-10T16:52:03.559Z,2.60
2019-03-10T16:54:34.897Z,2.40
2019-03-10T16:57:05.906Z,2.30
2019-03-10T16:59:36.756Z,1.98
2019-03-10T17:02:07.763Z,1.98
2019-03-10T17:04:38.636Z,2.15
2019-03-10T17:07:09.912Z,2.47
2019-03-10T17:09:40.984Z,3.00
2019-03-10T17:12:12.243Z,2.50
2019-03-10T17:14:43.808Z,3.37
2019-03-10T17:17:14.828Z,3.05
2019-03-10T17:19:45.956Z,3.77
2019-03-10T17:22:17.220Z,4.47
2019-03-10T17:24:48.691Z,4.50
2019-03-10T17:27:20.017Z,5.67
2019-03-10T17:29:51.569Z,5.05
2019-03-10T17:32:24.317Z,4.50
2019-03-10T17:34:55.821Z,3.80
2019-03-10T17:37:27.501Z,4.12
2019-03-10T17:39:58.695Z,3.35
2019-03-10T17:42:29.771Z,4.05
2019-03-10T17:45:03.128Z,9.88
2019-03-10T17:47:34.293Z,9.88
2019-03-10T17:50:05.895Z,6.25
2019-03-10T17:52:36.797Z,5.58
2019-03-10T17:55:08.041Z,5.33
2019-03-10T17:57:38.962Z,6.28
2019-03-10T18:00:11.303Z,7.25
2019-03-10T18:02:42.513Z,7.05
2019-03-10T18:05:13.943Z,6.53
2019-03-10T18:07:45.466Z,6.30
2019-03-10T18:10:16.650Z,7.08
2019-03-10T18:12:48.855Z,7.33
2019-03-10T18:15:20.233Z,5.92
2019-03-10T18:17:51.826Z,7.58
2019-03-10T18:20:24.142Z,7.87
2019-03-10T18:22:55.164Z,6.47
2019-03-10T18:25:26.236Z,4.92
2019-03-10T18:27:57.129Z,4.80
2019-03-10T18:30:28.698Z,4.12
2019-03-10T18:33:00.469Z,4.45
2019-03-10T18:35:32.195Z,3.90
2019-03-10T18:38:03.379Z,3.47
2019-03-10T18:40:37.216Z,4.33
2019-03-10T18:43:08.528Z,4.08
2019-03-10T18:45:40.093Z,3.60
2019-03-10T18:48:11.461Z,4.00
2019-03-10T18:50:42.980Z,3.33
2019-03-10T18:53:14.124Z,3.02
2019-03-10T18:55:45.226Z,3.30
2019-03-10T18:58:16.092Z,3.70
2019-03-10T19:00:47.303Z,4.05
2019-03-10T19:03:18.281Z,7.00
2019-03-10T19:05:49.110Z,7.42
2019-03-10T19:08:19.968Z,5.50
2019-03-10T19:10:50.920Z,3.90
2019-03-10T19:13:21.804Z,3.40
2019-03-10T19:15:52.640Z,3.27
2019-03-10T19:18:23.535Z,3.10
2019-03-10T19:20:54.524Z,2.90
2019-03-10T19:23:25.490Z,2.17
2019-03-10T19:25:56.305Z,2.30
2019-03-10T19:28:28.172Z,5.10
2019-03-10T19:30:58.993Z,7.15
2019-03-10T19:33:29.899Z,8.58
2019-03-10T19:36:00.735Z,13.68
2019-03-10T19:38:31.703Z,15.53
2019-03-10T19:41:02.537Z,21.25
2019-03-10T19:43:33.404Z,17.90
2019-03-10T19:46:04.363Z,9.85
2019-03-10T19:48:35.298Z,6.83
2019-03-10T19:51:06.149Z,5.72
2019-03-10T19:53:37.016Z,5.53
2019-03-10T19:56:07.867Z,6.03
2019-03-10T19:58:38.706Z,7.78
2019-03-10T20:01:09.542Z,6.60
2019-03-10T20:03:40.390Z,10.65
2019-03-10T20:06:11.237Z,10.03
2019-03-10T20:08:42.128Z,13.45
2019-03-10T20:11:13.068Z,12.45
2019-03-10T20:13:43.963Z,7.85
2019-03-10T20:16:14.794Z,6.42
2019-03-10T20:18:45.672Z,5.53
2019-03-10T20:21:17.417Z,4.95
2019-03-10T20:23:48.254Z,3.90
2019-03-10T20:26:19.447Z,2.85
2019-03-10T20:28:50.292Z,2.90
2019-03-10T20:31:21.143Z,2.15
2019-03-10T20:33:52.535Z,2.58
2019-03-10T20:36:23.628Z,2.22
2019-03-10T20:38:56.777Z,2.40
2019-03-10T20:41:27.737Z,2.20
2019-03-10T20:43:58.588Z,3.05
2019-03-10T20:46:29.428Z,2.70
2019-03-10T20:49:00.296Z,3.10
2019-03-10T20:51:31.124Z,2.90
2019-03-10T20:54:01.962Z,2.55
2019-03-10T20:56:32.772Z,2.87
2019-03-10T20:59:03.620Z,4.30
2019-03-10T21:01:34.457Z,3.98
2019-03-10T21:04:05.292Z,4.28
2019-03-10T21:06:36.162Z,6.47
2019-03-10T21:09:08.044Z,6.08
2019-03-10T21:11:39.624Z,7.42
2019-03-10T21:14:10.452Z,7.45
2019-03-10T21:16:41.274Z,6.90
2019-03-10T21:19:12.145Z,5.55
2019-03-10T21:21:43.051Z,5.60
2019-03-10T21:24:13.885Z,5.15
2019-03-10T21:26:44.698Z,3.87
2019-03-10T21:29:15.553Z,2.83
2019-03-10T21:31:46.400Z,1.52
2019-03-10T21:34:18.788Z,2.05
2019-03-10T21:36:49.618Z,2.08
2019-03-10T21:39:20.480Z,1.95
2019-03-10T21:41:51.740Z,2.05
2019-03-10T21:44:26.619Z,1.87
2019-03-10T21:46:54.996Z,1.90
2019-03-10T21:49:25.817Z,1.87
2019-03-10T21:51:56.625Z,1.75
2019-03-10T21:54:27.574Z,1.50
2019-03-10T21:56:59.413Z,1.52
2019-03-10T21:59:30.264Z,1.30
2019-03-10T22:02:01.081Z,1.45
2019-03-10T22:04:31.948Z,1.70
2019-03-10T22:07:02.784Z,1.60
2019-03-10T22:09:33.733Z,1.85
2019-03-10T22:12:04.565Z,1.70
2019-03-10T22:14:35.412Z,1.90
2019-03-10T22:17:06.245Z,3.05
2019-03-10T22:19:37.096Z,3.60
2019-03-10T22:22:07.932Z,3.22
2019-03-10T22:24:38.845Z,3.60
2019-03-10T22:27:09.656Z,3.65
2019-03-10T22:29:40.516Z,3.60
2019-03-10T22:32:11.341Z,3.60
2019-03-10T22:34:42.214Z,3.22
2019-03-10T22:37:13.060Z,3.55
2019-03-10T22:39:43.877Z,4.00
2019-03-10T22:42:14.689Z,3.90
2019-03-10T22:44:46.590Z,4.35
2019-03-10T22:47:17.546Z,4.20
2019-03-10T22:49:48.384Z,4.10
2019-03-10T22:52:19.207Z,4.97
2019-03-10T22:54:50.056Z,3.90
2019-03-10T22:57:20.892Z,3.60
2019-03-10T22:59:51.757Z,3.60
2019-03-10T23:02:23.582Z,3.80
2019-03-10T23:04:54.444Z,4.00
2019-03-10T23:07:25.238Z,3.65
2019-03-10T23:09:56.076Z,4.03
2019-03-10T23:12:26.917Z,3.90
2019-03-10T23:14:57.735Z,3.90
2019-03-10T23:17:28.556Z,3.42
2019-03-10T23:19:59.453Z,3.25
2019-03-10T23:22:30.305Z,3.62
2019-03-10T23:25:01.917Z,3.37
2019-03-10T23:27:35.015Z,3.35
2019-03-10T23:30:08.243Z,3.10
2019-03-10T23:32:39.066Z,3.00
2019-03-10T23:35:10.001Z,2.80
2019-03-10T23:37:40.837Z,2.85
2019-03-10T23:40:11.906Z,3.08
2019-03-10T23:42:42.876Z,3.30
2019-03-10T23:45:14.003Z,3.33
2019-03-10T23:47:44.809Z,2.95
2019-03-10T23:50:17.558Z,2.50
2019-03-10T23:52:48.359Z,2.67
2019-03-10T23:55:19.677Z,2.47
2019-03-10T23:57:50.481Z,2.35
